Sconset, Massachusetts
Current Conditions -  °F | °C
As of 11:53 PM on Monday 20 Oct 2014 (Local Time) from KACK Reporting Station
Broken Clouds Broken Clouds  
Wind Chill: 58°   Ceiling: 4700
Heat Index: 58°   Visibility: 10mi
Dew Point: 46°   Wind: 13mph
Humidity: 65%   Direction: 220°SW
Pressure: 30.04"   Gusts: NA
Location:  41.2623°N, 69.9668°W
Report Text: KACK 210353Z AUTO 22011KT 10SM BKN047 14/08 A3004 RMK AO2 SLP172 T01440078 $
Loading
Personal Weather Stations






























Interactive Weather Map
Tropical Storm Tracking
New forecast layout! Learn more

10-Day Weather Forecast

Advertisements
Track Severe Weather on mobile